Time;durP1;ratioP1;P1;durP2;ratioP2;P2;SDS_P1;SDS_P2;PMS_P1;PMS_P2;Temp;Humidity;BMP_temperature;BMP_pressure;BME280_temperature;BME280_humidity;BME280_pressure;Samples;Min_cycle;Max_cycle;Signal;HPM_P1;HPM_P2
2021/08/03 00:00:54;;;;;;;21.38;10.38;;;12.10;99.90;;;;;;6269304;22;20441;-58
2021/08/03 00:03:33;;;;;;;17.70;9.77;;;12.10;99.90;;;;;;6268778;22;20000;-55
2021/08/03 00:06:04;;;;;;;14.90;9.32;;;12.20;99.90;;;;;;6269182;22;20058;-58
2021/08/03 00:08:34;;;;;;;12.90;9.50;;;12.20;99.90;;;;;;6270207;22;20000;-57
2021/08/03 00:11:04;;;;;;;19.00;10.00;;;12.20;99.90;;;;;;6268516;22;19995;-59
2021/08/03 00:13:31;;;;;;;23.13;10.02;;;12.10;99.90;;;;;;6268131;22;19995;-56
2021/08/03 00:16:01;;;;;;;16.35;10.15;;;12.10;99.90;;;;;;6267684;22;20026;-60
2021/08/03 00:18:28;;;;;;;15.00;10.23;;;12.10;99.90;;;;;;6267984;22;20050;-56
2021/08/03 00:20:53;;;;;;;18.77;10.82;;;12.10;99.90;;;;;;6270270;22;20000;-59
2021/08/03 00:23:21;;;;;;;15.77;10.77;;;12.20;99.90;;;;;;6271987;22;20003;-58
2021/08/03 00:25:49;;;;;;;18.95;10.07;;;12.20;99.90;;;;;;6271166;22;19995;-60
2021/08/03 00:28:14;;;;;;;20.02;9.82;;;12.20;99.90;;;;;;6271506;22;20004;-61
2021/08/03 00:30:42;;;;;;;13.05;9.27;;;12.30;99.90;;;;;;6270800;22;20023;-59
2021/08/03 00:33:07;;;;;;;19.17;9.85;;;12.40;99.90;;;;;;6271863;22;20007;-59
2021/08/03 00:35:33;;;;;;;16.42;10.48;;;12.40;99.90;;;;;;6270936;22;20004;-61
2021/08/03 00:37:59;;;;;;;20.50;10.10;;;12.40;99.90;;;;;;6271401;22;19996;-58
2021/08/03 00:40:26;;;;;;;15.00;10.10;;;12.40;99.90;;;;;;6270943;22;20583;-55
2021/08/03 00:42:51;;;;;;;17.42;11.25;;;12.40;99.90;;;;;;6270332;22;19999;-60
2021/08/03 00:45:17;;;;;;;20.92;12.95;;;12.40;99.90;;;;;;6271182;22;20343;-56
2021/08/03 00:47:42;;;;;;;21.27;13.25;;;12.50;99.90;;;;;;6270705;22;20008;-58
2021/08/03 00:50:08;;;;;;;20.20;12.32;;;12.60;99.90;;;;;;6269432;22;20007;-60
2021/08/03 00:52:35;;;;;;;19.23;11.60;;;12.60;99.90;;;;;;6269342;22;20485;-58
2021/08/03 00:55:01;;;;;;;15.98;11.77;;;12.50;99.90;;;;;;6271771;22;20370;-58
2021/08/03 00:57:27;;;;;;;20.75;13.35;;;12.60;99.90;;;;;;6271120;22;20492;-57
2021/08/03 00:59:52;;;;;;;21.42;12.55;;;12.60;99.90;;;;;;6272641;22;20078;-59
2021/08/03 01:02:18;;;;;;;24.45;13.43;;;12.70;99.90;;;;;;6271157;22;20000;-59
2021/08/03 01:04:43;;;;;;;20.40;14.25;;;12.70;99.90;;;;;;6271207;22;20074;-59
2021/08/03 01:07:16;;;;;;;21.92;13.02;;;12.80;99.90;;;;;;6271535;22;20015;-57
2021/08/03 01:10:05;;;;;;;19.90;13.50;;;12.80;99.90;;;;;;6273553;22;20753;-59
2021/08/03 01:12:45;;;;;;;17.33;12.90;;;12.90;99.90;;;;;;6273584;22;20133;-60
2021/08/03 01:15:29;;;;;;;15.80;12.52;;;12.90;99.90;;;;;;6273749;22;20399;-59
2021/08/03 01:18:13;;;;;;;20.40;13.70;;;12.90;99.90;;;;;;6272254;22;20007;-59
2021/08/03 01:20:59;;;;;;;29.20;14.07;;;12.90;99.90;;;;;;6269892;22;20047;-58
2021/08/03 01:23:41;;;;;;;22.15;13.15;;;13.00;99.90;;;;;;6272894;22;20083;-58
2021/08/03 01:26:09;;;;;;;21.95;13.60;;;13.00;99.90;;;;;;6270848;22;20008;-57
2021/08/03 01:28:39;;;;;;;23.10;15.27;;;12.90;99.90;;;;;;6273474;22;20083;-58
2021/08/03 01:31:21;;;;;;;20.17;14.15;;;13.00;99.90;;;;;;6273124;22;20104;-58
2021/08/03 01:33:50;;;;;;;20.85;14.95;;;13.00;99.90;;;;;;6274581;22;20023;-58
2021/08/03 01:36:17;;;;;;;27.42;15.35;;;13.00;99.90;;;;;;6272355;22;20011;-60
2021/08/03 01:38:46;;;;;;;19.60;14.00;;;12.90;99.90;;;;;;6273003;22;20079;-56
2021/08/03 01:41:15;;;;;;;21.38;13.40;;;12.90;99.90;;;;;;6272708;22;20004;-58
2021/08/03 01:43:42;;;;;;;19.10;12.93;;;12.90;99.90;;;;;;6273296;22;20012;-57
2021/08/03 01:46:10;;;;;;;23.52;13.90;;;13.00;99.90;;;;;;6271202;22;20423;-59
2021/08/03 01:48:37;;;;;;;19.50;14.48;;;13.00;99.90;;;;;;6270672;22;20385;-57
2021/08/03 01:51:02;;;;;;;22.25;15.35;;;13.00;99.90;;;;;;6271060;22;20004;-59
2021/08/03 01:53:28;;;;;;;21.48;14.82;;;13.00;99.90;;;;;;6271680;22;20446;-57
2021/08/03 01:55:57;;;;;;;20.88;14.15;;;13.00;99.90;;;;;;6271220;22;20446;-55
2021/08/03 01:58:23;;;;;;;21.67;14.18;;;13.00;99.90;;;;;;6273473;22;20008;-56
2021/08/03 02:00:51;;;;;;;25.00;15.77;;;13.10;99.90;;;;;;6272776;22;20067;-58
2021/08/03 02:03:20;;;;;;;25.40;15.90;;;13.10;99.90;;;;;;6273090;22;20003;-57
2021/08/03 02:05:47;;;;;;;25.45;15.80;;;13.10;99.90;;;;;;6272507;22;20003;-59
2021/08/03 02:08:16;;;;;;;23.85;16.48;;;13.10;99.90;;;;;;6272318;22;20004;-59
2021/08/03 02:10:41;;;;;;;27.48;17.23;;;13.10;99.90;;;;;;6272402;22;20003;-59
2021/08/03 02:13:07;;;;;;;25.90;16.77;;;13.10;99.90;;;;;;6273597;22;20076;-57
2021/08/03 02:15:33;;;;;;;24.38;16.35;;;13.10;99.90;;;;;;6272257;22;20414;-60
2021/08/03 02:17:59;;;;;;;27.17;15.65;;;13.10;99.90;;;;;;6271638;22;20136;-55
2021/08/03 02:20:25;;;;;;;31.73;17.27;;;13.20;99.90;;;;;;6269528;22;19999;-55
2021/08/03 02:22:50;;;;;;;24.45;16.20;;;13.30;99.90;;;;;;6270836;22;19996;-57
2021/08/03 02:25:17;;;;;;;22.67;15.20;;;13.30;99.90;;;;;;6271578;22;20082;-57
2021/08/03 02:27:43;;;;;;;25.98;17.42;;;13.20;99.90;;;;;;6272780;22;20320;-59
2021/08/03 02:30:10;;;;;;;29.42;17.58;;;13.20;99.90;;;;;;6272450;22;20000;-57
2021/08/03 02:32:49;;;;;;;26.10;16.98;;;13.20;99.90;;;;;;6274056;22;20378;-60
2021/08/03 02:35:19;;;;;;;25.30;15.60;;;13.30;99.90;;;;;;6271894;22;20383;-58
2021/08/03 02:37:52;;;;;;;32.22;18.20;;;13.30;99.90;;;;;;6272427;22;20084;-57
2021/08/03 02:40:18;;;;;;;25.75;16.50;;;13.40;99.90;;;;;;6272357;22;20006;-57
2021/08/03 02:42:45;;;;;;;25.02;16.45;;;13.40;99.90;;;;;;6271921;22;20004;-58
2021/08/03 02:45:16;;;;;;;27.00;16.80;;;13.30;99.90;;;;;;6270521;22;20458;-56
2021/08/03 02:47:51;;;;;;;22.70;15.40;;;13.30;99.90;;;;;;6271449;22;20011;-54
2021/08/03 02:50:19;;;;;;;24.73;16.42;;;13.40;99.90;;;;;;6269394;22;20008;-54
2021/08/03 02:52:48;;;;;;;23.20;15.85;;;13.40;99.90;;;;;;6270335;22;20003;-58
2021/08/03 02:55:31;;;;;;;25.95;16.48;;;13.30;99.90;;;;;;6272014;22;20018;-56
2021/08/03 02:58:03;;;;;;;27.50;16.38;;;13.30;99.90;;;;;;6271462;22;20000;-57
2021/08/03 03:00:33;;;;;;;26.52;17.15;;;13.40;99.90;;;;;;6272269;22;20006;-55
2021/08/03 03:03:04;;;;;;;24.75;16.00;;;13.40;99.90;;;;;;6272399;22;20078;-59
2021/08/03 03:05:34;;;;;;;27.35;17.40;;;13.40;99.90;;;;;;6271305;22;20065;-55
2021/08/03 03:08:05;;;;;;;21.30;14.75;;;13.40;99.90;;;;;;6272306;22;20004;-54
2021/08/03 03:10:33;;;;;;;26.73;15.80;;;13.40;99.90;;;;;;6271986;22;20210;-57
2021/08/03 03:13:33;;;;;;;27.70;16.80;;;13.40;99.90;;;;;;6271976;22;20011;-60
2021/08/03 03:16:00;;;;;;;22.95;15.80;;;13.40;99.90;;;;;;6254695;22;20015;-58
2021/08/03 03:18:27;;;;;;;29.88;16.55;;;13.40;99.90;;;;;;6270137;22;20061;-55
2021/08/03 03:20:53;;;;;;;25.20;16.67;;;13.40;99.90;;;;;;6269345;22;20004;-53
2021/08/03 03:23:22;;;;;;;24.83;16.15;;;13.50;99.90;;;;;;6270212;22;20003;-57
2021/08/03 03:25:50;;;;;;;23.33;16.77;;;13.40;99.90;;;;;;6272093;22;20071;-56
2021/08/03 03:28:23;;;;;;;22.13;15.85;;;13.50;99.90;;;;;;6271829;22;20010;-54
2021/08/03 03:30:49;;;;;;;27.20;15.73;;;13.50;99.90;;;;;;6270858;22;20062;-54
2021/08/03 03:33:15;;;;;;;23.70;16.65;;;13.50;99.90;;;;;;6271751;22;20012;-61
2021/08/03 03:35:41;;;;;;;25.75;15.65;;;13.50;99.90;;;;;;6272877;22;20086;-58
2021/08/03 03:38:07;;;;;;;23.27;15.63;;;13.50;99.90;;;;;;6272288;22;20335;-57
2021/08/03 03:40:34;;;;;;;21.48;15.07;;;13.50;99.90;;;;;;6272033;22;20428;-56
2021/08/03 03:43:01;;;;;;;25.33;14.70;;;13.60;99.90;;;;;;6272360;22;19996;-55
2021/08/03 03:45:26;;;;;;;23.55;14.52;;;13.70;99.90;;;;;;6270879;22;20014;-59
2021/08/03 03:48:06;;;;;;;20.05;14.70;;;13.70;99.90;;;;;;6271389;22;20074;-56
2021/08/03 03:50:44;;;;;;;18.55;13.32;;;13.70;99.90;;;;;;6270518;22;20003;-57
2021/08/03 03:53:15;;;;;;;22.98;14.75;;;13.70;99.90;;;;;;6272873;22;20008;-54
2021/08/03 03:55:51;;;;;;;20.38;14.38;;;13.80;99.90;;;;;;6272150;22;20004;-57
2021/08/03 03:58:18;;;;;;;24.35;14.13;;;13.70;99.90;;;;;;6273081;22;20374;-61
2021/08/03 04:00:44;;;;;;;22.65;14.48;;;13.70;99.90;;;;;;6271856;22;20006;-58
2021/08/03 04:03:11;;;;;;;24.27;14.70;;;13.60;99.90;;;;;;6272178;22;20340;-57
2021/08/03 04:05:39;;;;;;;26.38;15.38;;;13.60;99.90;;;;;;6271379;22;20533;-60
2021/08/03 04:08:09;;;;;;;25.98;14.73;;;13.60;99.90;;;;;;6270492;22;20078;-54
2021/08/03 04:10:36;;;;;;;21.58;14.95;;;13.60;99.90;;;;;;6272189;22;20246;-55
2021/08/03 04:13:02;;;;;;;18.92;13.63;;;13.60;99.90;;;;;;6272580;22;20034;-58
2021/08/03 04:15:29;;;;;;;28.40;14.88;;;13.70;99.90;;;;;;6270871;22;20008;-54
2021/08/03 04:17:55;;;;;;;17.90;13.30;;;13.70;99.90;;;;;;6272002;22;20014;-55
2021/08/03 04:20:21;;;;;;;21.40;14.63;;;13.70;99.90;;;;;;6271720;22;20066;-59
2021/08/03 04:22:47;;;;;;;19.92;14.27;;;13.70;99.90;;;;;;6272432;22;20428;-54
2021/08/03 04:25:12;;;;;;;21.13;14.23;;;13.70;99.90;;;;;;6271501;22;20464;-60
2021/08/03 04:27:38;;;;;;;22.88;15.35;;;13.70;99.90;;;;;;6271639;22;20004;-57
2021/08/03 04:30:05;;;;;;;20.95;14.50;;;13.70;99.90;;;;;;6272065;22;20065;-55
2021/08/03 04:32:31;;;;;;;18.02;13.55;;;13.70;99.90;;;;;;6271602;22;20012;-61
2021/08/03 04:34:56;;;;;;;22.30;14.43;;;13.70;99.90;;;;;;6272132;22;20431;-60
2021/08/03 04:37:22;;;;;;;19.75;13.52;;;13.80;99.90;;;;;;6271925;22;20081;-57
2021/08/03 04:39:47;;;;;;;24.80;14.90;;;13.80;99.90;;;;;;6271301;22;20340;-56
2021/08/03 04:42:13;;;;;;;24.25;14.70;;;13.80;99.90;;;;;;6273223;22;19998;-58
2021/08/03 04:44:39;;;;;;;25.35;15.90;;;13.90;99.90;;;;;;6274044;22;20016;-54
2021/08/03 04:47:04;;;;;;;24.80;16.95;;;13.80;99.90;;;;;;6269527;22;20371;-55
2021/08/03 04:49:31;;;;;;;23.70;16.08;;;13.90;99.90;;;;;;6272709;22;20447;-57
2021/08/03 04:51:57;;;;;;;22.33;14.95;;;13.90;99.90;;;;;;6272631;22;20010;-54
2021/08/03 04:54:23;;;;;;;25.02;15.68;;;14.00;99.90;;;;;;6273272;22;20003;-56
2021/08/03 04:56:48;;;;;;;21.85;13.90;;;14.00;99.90;;;;;;6270421;22;20382;-56
2021/08/03 04:59:14;;;;;;;22.88;13.15;;;14.10;99.90;;;;;;6273197;22;20331;-55
2021/08/03 05:01:39;;;;;;;20.40;13.45;;;14.10;99.90;;;;;;6273258;22;20458;-53
2021/08/03 05:04:05;;;;;;;21.00;14.32;;;14.10;99.90;;;;;;6274194;22;20031;-56
2021/08/03 05:06:30;;;;;;;17.85;13.32;;;14.00;99.90;;;;;;6273264;22;20339;-57
2021/08/03 05:08:56;;;;;;;18.77;12.85;;;14.00;99.90;;;;;;6273727;22;20027;-54
2021/08/03 05:11:21;;;;;;;17.63;12.18;;;14.10;99.90;;;;;;6273621;22;20007;-55
2021/08/03 05:13:47;;;;;;;21.38;12.85;;;14.10;99.90;;;;;;6273675;22;20081;-55
2021/08/03 05:16:12;;;;;;;18.17;13.68;;;14.20;99.90;;;;;;6273100;22;20313;-56
2021/08/03 05:18:38;;;;;;;25.77;14.68;;;14.20;99.90;;;;;;6269952;22;20010;-56
2021/08/03 05:21:03;;;;;;;21.60;13.10;;;14.10;99.90;;;;;;6271124;22;20137;-56
2021/08/03 05:23:29;;;;;;;27.90;14.18;;;14.20;99.90;;;;;;6274265;22;20023;-59
2021/08/03 05:25:54;;;;;;;22.20;13.88;;;14.20;99.90;;;;;;6273129;22;20004;-53
2021/08/03 05:28:20;;;;;;;20.42;14.38;;;14.20;99.90;;;;;;6273407;22;20069;-58
2021/08/03 05:30:47;;;;;;;23.60;15.13;;;14.20;99.90;;;;;;6280415;22;20011;-59
2021/08/03 05:33:13;;;;;;;24.40;14.30;;;14.30;99.90;;;;;;6279894;22;20004;-61
2021/08/03 05:35:39;;;;;;;22.75;13.40;;;14.30;99.90;;;;;;6278776;22;20000;-57
2021/08/03 05:38:06;;;;;;;21.73;13.98;;;14.40;99.90;;;;;;6279075;22;20014;-59
2021/08/03 05:40:31;;;;;;;18.98;13.70;;;14.30;99.90;;;;;;6278698;22;19996;-60
2021/08/03 05:42:57;;;;;;;24.20;13.82;;;14.40;99.90;;;;;;6278654;22;20007;-58
2021/08/03 05:45:23;;;;;;;18.20;12.63;;;14.40;99.90;;;;;;6278576;22;20004;-61
2021/08/03 05:47:50;;;;;;;20.65;13.00;;;14.40;99.90;;;;;;6276283;22;20039;-63
2021/08/03 05:50:15;;;;;;;21.02;14.05;;;14.50;99.90;;;;;;6274950;22;20502;-61
2021/08/03 05:52:41;;;;;;;17.85;12.60;;;14.50;99.90;;;;;;6277265;22;20039;-61
2021/08/03 05:55:07;;;;;;;19.73;13.68;;;14.50;99.90;;;;;;6277300;22;20000;-57
2021/08/03 05:57:32;;;;;;;24.05;13.30;;;14.50;99.90;;;;;;6276422;22;20224;-58
2021/08/03 05:59:58;;;;;;;23.90;13.93;;;14.60;99.90;;;;;;6274657;22;19999;-59
2021/08/03 06:02:24;;;;;;;21.30;13.48;;;14.60;99.90;;;;;;6278330;22;20324;-57
2021/08/03 06:04:49;;;;;;;25.73;14.02;;;14.70;99.90;;;;;;6277870;22;20321;-60
2021/08/03 06:07:17;;;;;;;18.55;12.85;;;14.60;99.90;;;;;;6277764;22;20022;-59
2021/08/03 06:09:43;;;;;;;25.02;14.13;;;14.70;99.90;;;;;;6278485;22;20428;-60
2021/08/03 06:12:10;;;;;;;19.83;14.02;;;14.70;99.90;;;;;;6280343;22;20432;-59
2021/08/03 06:14:40;;;;;;;26.23;14.05;;;14.70;99.90;;;;;;6280210;22;20491;-62
2021/08/03 06:17:08;;;;;;;24.10;14.00;;;14.70;99.90;;;;;;6278220;22;20038;-63
2021/08/03 06:19:45;;;;;;;22.38;14.80;;;14.70;99.90;;;;;;6277664;22;19996;-61
2021/08/03 06:22:11;;;;;;;23.58;15.93;;;14.70;99.90;;;;;;6278951;22;20026;-64
2021/08/03 06:24:39;;;;;;;18.23;13.48;;;14.70;99.90;;;;;;6280917;22;20008;-61
2021/08/03 06:27:13;;;;;;;18.10;13.52;;;14.70;99.90;;;;;;6280523;22;20020;-62
2021/08/03 06:29:40;;;;;;;24.27;14.25;;;14.80;99.90;;;;;;6281120;22;20008;-62
2021/08/03 06:32:08;;;;;;;23.35;16.02;;;14.80;99.90;;;;;;6279873;22;20011;-62
2021/08/03 06:34:36;;;;;;;23.15;15.52;;;14.80;99.90;;;;;;6279733;22;20004;-59
2021/08/03 06:37:01;;;;;;;21.30;14.95;;;14.70;99.90;;;;;;6279798;22;20022;-62
2021/08/03 06:39:27;;;;;;;23.17;15.55;;;14.80;99.90;;;;;;6279602;22;19999;-62
2021/08/03 06:42:01;;;;;;;22.95;15.57;;;14.80;99.90;;;;;;6279215;22;20085;-59
2021/08/03 06:44:42;;;;;;;20.92;14.80;;;14.80;99.90;;;;;;6280194;22;20014;-61
2021/08/03 06:47:10;;;;;;;26.23;15.65;;;14.90;99.90;;;;;;6275669;22;20085;-59
2021/08/03 06:49:43;;;;;;;24.23;15.95;;;14.90;99.90;;;;;;6274617;22;20000;-59
2021/08/03 06:52:12;;;;;;;27.48;16.65;;;15.00;99.90;;;;;;6277589;22;20058;-59
2021/08/03 06:54:39;;;;;;;22.58;15.82;;;15.00;99.90;;;;;;6279982;22;20035;-62
2021/08/03 06:57:08;;;;;;;24.92;16.73;;;15.20;99.90;;;;;;6275552;22;20003;-60
2021/08/03 06:59:37;;;;;;;26.35;15.70;;;15.20;99.90;;;;;;6278133;22;20545;-58
2021/08/03 07:02:07;;;;;;;26.98;15.98;;;15.30;99.90;;;;;;6279615;22;20042;-59
2021/08/03 07:04:47;;;;;;;25.10;15.60;;;15.30;99.90;;;;;;6277520;22;20384;-64
2021/08/03 07:07:14;;;;;;;29.42;15.50;;;15.30;99.90;;;;;;6244994;23;20008;-58
2021/08/03 07:09:42;;;;;;;24.08;16.55;;;15.40;99.90;;;;;;6245122;23;20011;-61
2021/08/03 07:12:13;;;;;;;24.90;15.93;;;15.30;99.90;;;;;;6245038;23;20004;-60
2021/08/03 07:14:39;;;;;;;24.70;15.30;;;15.30;99.90;;;;;;6245157;23;20074;-63
2021/08/03 07:17:06;;;;;;;25.85;15.95;;;15.40;99.90;;;;;;6245587;22;19992;-63
2021/08/03 07:19:33;;;;;;;22.73;15.93;;;15.40;99.90;;;;;;6244563;23;20062;-61
2021/08/03 07:21:59;;;;;;;28.33;14.82;;;15.40;99.90;;;;;;6245830;23;20474;-58
2021/08/03 07:24:25;;;;;;;26.35;15.88;;;15.40;99.90;;;;;;6247239;23;20001;-61
2021/08/03 07:26:51;;;;;;;26.50;15.07;;;15.50;99.90;;;;;;6243974;22;20004;-60
2021/08/03 07:29:16;;;;;;;19.85;14.13;;;15.50;99.90;;;;;;6245591;23;20007;-62
2021/08/03 07:31:42;;;;;;;24.17;16.02;;;15.60;99.90;;;;;;6246671;23;20004;-60
2021/08/03 07:34:09;;;;;;;25.75;15.05;;;15.60;99.90;;;;;;6246207;23;20735;-64
2021/08/03 07:36:36;;;;;;;24.60;14.82;;;15.60;99.90;;;;;;6244724;22;20011;-62
2021/08/03 07:39:04;;;;;;;24.88;15.63;;;15.60;99.90;;;;;;6246131;23;20361;-60
2021/08/03 07:41:31;;;;;;;21.05;14.32;;;15.70;99.90;;;;;;6247974;23;20004;-65
2021/08/03 07:43:56;;;;;;;18.48;12.93;;;15.80;99.90;;;;;;6247133;23;20046;-61
2021/08/03 07:46:22;;;;;;;20.00;14.13;;;15.90;99.90;;;;;;6245620;22;20000;-65
2021/08/03 07:48:51;;;;;;;22.08;13.25;;;16.00;99.90;;;;;;6245191;23;20016;-58
2021/08/03 07:51:18;;;;;;;21.08;12.93;;;16.00;99.90;;;;;;6246442;23;20004;-63
2021/08/03 07:53:46;;;;;;;21.20;14.05;;;16.10;99.90;;;;;;6246379;23;20047;-59
2021/08/03 07:56:12;;;;;;;18.85;13.07;;;16.20;99.90;;;;;;6247897;22;20075;-63
2021/08/03 07:58:38;;;;;;;21.83;13.68;;;16.30;99.90;;;;;;6248853;23;20079;-59
2021/08/03 08:01:04;;;;;;;18.95;12.82;;;16.30;99.90;;;;;;6249252;23;20004;-62
2021/08/03 08:03:31;;;;;;;17.83;12.82;;;16.30;99.90;;;;;;6247128;23;20038;-65
2021/08/03 08:05:56;;;;;;;18.40;11.77;;;16.30;99.90;;;;;;6201820;22;1055904;-60
2021/08/03 08:08:22;;;;;;;20.83;12.30;;;16.30;99.90;;;;;;6279279;22;20241;-63
2021/08/03 08:10:47;;;;;;;17.58;11.13;;;16.30;99.90;;;;;;6280907;22;20029;-62
2021/08/03 08:13:13;;;;;;;21.67;11.45;;;16.40;99.90;;;;;;6282322;22;20000;-64
2021/08/03 08:15:40;;;;;;;21.13;11.63;;;16.50;99.90;;;;;;6279353;22;20543;-62
2021/08/03 08:18:08;;;;;;;17.20;11.38;;;16.50;99.90;;;;;;6282920;22;20004;-61
2021/08/03 08:20:35;;;;;;;18.17;10.65;;;16.50;99.90;;;;;;6278209;22;20474;-61
2021/08/03 08:23:00;;;;;;;16.58;10.85;;;16.50;99.90;;;;;;6278788;22;20114;-59
2021/08/03 08:25:27;;;;;;;16.27;10.95;;;16.50;99.90;;;;;;6279305;22;20007;-61
2021/08/03 08:27:53;;;;;;;17.48;10.95;;;16.40;99.90;;;;;;6279185;22;20004;-58
2021/08/03 08:30:19;;;;;;;16.02;11.25;;;16.30;99.90;;;;;;6283043;22;20003;-58
2021/08/03 08:32:45;;;;;;;18.67;11.32;;;16.30;99.90;;;;;;6300093;22;20324;-62
2021/08/03 08:35:11;;;;;;;14.85;10.57;;;16.30;99.90;;;;;;6301814;22;20007;-62
2021/08/03 08:37:37;;;;;;;15.77;9.90;;;16.30;99.90;;;;;;6305261;22;20045;-60
2021/08/03 08:40:05;;;;;;;16.48;9.93;;;16.30;99.90;;;;;;6305293;22;19995;-62
2021/08/03 08:42:32;;;;;;;16.60;10.07;;;16.30;99.90;;;;;;6305267;22;20386;-64
2021/08/03 08:44:59;;;;;;;17.95;9.98;;;16.20;99.90;;;;;;6305110;22;20003;-62
2021/08/03 08:47:26;;;;;;;15.85;10.73;;;16.20;99.90;;;;;;6304527;22;20067;-61
2021/08/03 08:49:52;;;;;;;16.05;10.13;;;16.20;99.90;;;;;;6305123;22;20049;-64
2021/08/03 08:52:18;;;;;;;15.13;10.82;;;16.20;99.90;;;;;;6304216;22;20423;-64
2021/08/03 08:54:44;;;;;;;21.50;10.52;;;16.20;99.90;;;;;;6305696;22;20010;-64
2021/08/03 08:57:10;;;;;;;19.92;10.57;;;16.20;99.90;;;;;;6304718;22;20019;-63
2021/08/03 08:59:36;;;;;;;16.58;9.55;;;16.20;99.90;;;;;;6305267;22;19995;-62
2021/08/03 09:02:03;;;;;;;13.02;9.75;;;16.30;99.90;;;;;;6304664;22;20003;-64
2021/08/03 09:04:28;;;;;;;18.27;10.60;;;16.20;99.90;;;;;;6304069;22;20007;-62
2021/08/03 09:07:01;;;;;;;15.70;10.07;;;16.20;99.90;;;;;;6304736;22;20561;-66
2021/08/03 09:09:27;;;;;;;15.27;11.18;;;16.10;99.90;;;;;;6306047;22;20010;-62
2021/08/03 09:11:52;;;;;;;20.08;12.43;;;16.00;99.90;;;;;;6304447;22;20007;-67
2021/08/03 09:14:53;;;;;;;20.42;12.27;;;15.90;99.90;;;;;;6305064;22;20009;-61
2021/08/03 09:17:28;;;;;;;21.88;14.75;;;15.90;99.90;;;;;;6149015;23;20005;-63
2021/08/03 09:19:53;;;;;;;23.17;13.85;;;15.80;99.90;;;;;;6282200;22;20007;-66
2021/08/03 09:22:30;;;;;;;22.38;12.82;;;15.80;99.90;;;;;;6304921;22;19999;-63
2021/08/03 09:25:15;;;;;;;20.17;13.00;;;16.00;99.90;;;;;;6303827;22;20454;-64
2021/08/03 09:27:44;;;;;;;17.02;12.77;;;16.20;99.90;;;;;;6304474;22;20029;-63
2021/08/03 09:30:31;;;;;;;16.73;12.25;;;16.30;99.90;;;;;;6303981;22;19999;-60
2021/08/03 09:32:57;;;;;;;16.80;10.93;;;16.20;99.90;;;;;;6303413;22;20031;-64
2021/08/03 09:35:25;;;;;;;21.13;12.38;;;16.10;99.90;;;;;;6303417;22;20554;-63
2021/08/03 09:37:52;;;;;;;17.92;12.38;;;16.10;99.90;;;;;;6303639;22;20009;-64
2021/08/03 09:40:28;;;;;;;16.38;12.40;;;16.10;99.90;;;;;;6305273;22;20022;-66
2021/08/03 09:43:05;;;;;;;14.95;12.05;;;16.10;99.90;;;;;;6303585;22;19995;-63
2021/08/03 09:45:54;;;;;;;15.80;12.05;;;16.00;99.90;;;;;;6304587;22;20023;-66
2021/08/03 09:48:22;;;;;;;17.77;12.85;;;16.00;99.90;;;;;;6302456;22;20019;-64
2021/08/03 09:51:01;;;;;;;18.50;13.27;;;16.00;99.90;;;;;;6300574;22;20011;-64
2021/08/03 09:53:51;;;;;;;15.38;11.70;;;16.00;99.90;;;;;;6301037;22;20007;-64
2021/08/03 09:56:31;;;;;;;19.42;12.95;;;15.90;99.90;;;;;;6300658;22;20011;-65
2021/08/03 09:58:58;;;;;;;23.00;12.38;;;15.90;99.90;;;;;;6300890;22;20015;-66
2021/08/03 10:01:28;;;;;;;16.08;12.63;;;16.00;99.90;;;;;;6300585;22;20018;-62
2021/08/03 10:03:55;;;;;;;16.70;12.75;;;16.10;99.90;;;;;;6301048;22;20004;-63
2021/08/03 10:06:21;;;;;;;17.85;12.95;;;16.20;99.90;;;;;;6300237;22;20001;-68
2021/08/03 10:08:48;;;;;;;16.33;12.18;;;16.20;99.90;;;;;;6301260;22;19999;-66
2021/08/03 10:11:15;;;;;;;17.67;12.43;;;16.30;99.90;;;;;;6300520;22;20013;-62
2021/08/03 10:13:42;;;;;;;16.73;12.93;;;16.40;99.90;;;;;;6299672;22;20095;-66
2021/08/03 10:16:08;;;;;;;22.52;13.55;;;16.60;99.90;;;;;;6300218;22;19995;-63
2021/08/03 10:18:38;;;;;;;17.88;12.57;;;16.60;99.90;;;;;;6300666;22;20014;-64
2021/08/03 10:21:04;;;;;;;17.42;12.68;;;16.60;99.90;;;;;;6298659;22;20022;-65
2021/08/03 10:23:35;;;;;;;18.30;12.85;;;16.70;99.90;;;;;;6300267;22;20493;-63
2021/08/03 10:26:01;;;;;;;16.85;11.02;;;16.70;99.90;;;;;;6298717;22;20006;-63
2021/08/03 10:28:28;;;;;;;19.23;11.85;;;16.70;99.90;;;;;;6300414;22;20431;-62
2021/08/03 10:30:55;;;;;;;18.75;12.60;;;16.80;99.90;;;;;;6297779;22;20012;-65
2021/08/03 10:33:37;;;;;;;21.45;13.88;;;16.80;99.90;;;;;;6298451;22;20003;-70
2021/08/03 10:36:03;;;;;;;17.88;13.38;;;16.70;99.90;;;;;;6297218;22;20008;-63
2021/08/03 10:38:28;;;;;;;18.67;13.50;;;16.60;99.90;;;;;;6299506;22;20006;-64
2021/08/03 10:41:00;;;;;;;21.85;14.50;;;16.60;99.90;;;;;;6299679;22;20038;-62
2021/08/03 10:43:35;;;;;;;19.90;14.32;;;16.60;99.90;;;;;;6299669;22;20007;-64
2021/08/03 10:46:29;;;;;;;18.42;13.13;;;16.60;99.90;;;;;;6299441;22;20053;-67
2021/08/03 10:48:55;;;;;;;17.40;13.90;;;16.70;99.90;;;;;;6286403;22;20022;-66
2021/08/03 10:51:24;;;;;;;23.42;14.00;;;16.80;99.90;;;;;;6299686;22;20466;-66
2021/08/03 10:54:12;;;;;;;18.10;13.35;;;17.00;99.90;;;;;;6299654;22;19999;-64
2021/08/03 10:56:54;;;;;;;20.92;13.05;;;17.10;99.90;;;;;;6271549;22;19999;-60
2021/08/03 10:59:32;;;;;;;18.73;13.88;;;17.40;99.90;;;;;;6299387;22;19999;-60
2021/08/03 11:02:00;;;;;;;17.48;13.10;;;17.60;99.90;;;;;;6299721;22;20006;-62
2021/08/03 11:04:48;;;;;;;18.92;11.18;;;17.80;99.90;;;;;;6299829;22;20342;-66
2021/08/03 11:07:30;;;;;;;16.65;10.50;;;17.90;99.90;;;;;;6298754;22;20031;-68
2021/08/03 11:10:20;;;;;;;15.85;10.00;;;18.20;99.90;;;;;;6299437;22;20007;-65
2021/08/03 11:12:51;;;;;;;14.15;9.27;;;18.40;99.90;;;;;;6274359;22;20092;-64
2021/08/03 11:15:22;;;;;;;11.93;9.75;;;18.50;99.90;;;;;;6299331;22;20003;-66
2021/08/03 11:18:15;;;;;;;13.23;9.27;;;18.90;99.90;;;;;;6299375;22;20066;-63
2021/08/03 11:20:45;;;;;;;11.95;8.55;;;18.70;99.90;;;;;;6293415;22;20418;-63
2021/08/03 11:23:17;;;;;;;10.10;8.38;;;18.60;99.90;;;;;;6299819;22;20357;-62
2021/08/03 11:25:45;;;;;;;11.98;7.85;;;18.80;99.90;;;;;;6298436;22;19999;-66
2021/08/03 11:28:15;;;;;;;9.98;7.05;;;18.70;99.90;;;;;;6299782;22;20076;-62
2021/08/03 11:30:43;;;;;;;9.43;6.82;;;18.90;99.90;;;;;;6298763;22;20497;-64
2021/08/03 11:33:11;;;;;;;10.55;7.25;;;19.10;99.90;;;;;;6299117;22;20015;-65
2021/08/03 11:35:37;;;;;;;11.32;7.68;;;19.00;99.90;;;;;;6299724;22;19999;-65
2021/08/03 11:38:07;;;;;;;10.85;6.80;;;19.10;99.90;;;;;;6299685;22;19999;-65
2021/08/03 11:40:34;;;;;;;13.68;7.75;;;19.00;99.90;;;;;;6299930;22;20421;-65
2021/08/03 11:43:00;;;;;;;9.77;7.03;;;18.80;99.90;;;;;;6299876;22;19996;-63
2021/08/03 11:45:27;;;;;;;9.35;7.22;;;18.70;99.90;;;;;;6299261;22;20003;-63
2021/08/03 11:48:04;;;;;;;11.70;7.45;;;18.70;99.90;;;;;;6299552;22;20056;-63
2021/08/03 11:50:30;;;;;;;11.27;7.78;;;18.40;99.90;;;;;;6299597;22;20115;-63
2021/08/03 11:53:04;;;;;;;9.55;7.10;;;18.40;99.90;;;;;;6271930;22;20134;-62
2021/08/03 11:55:30;;;;;;;10.43;7.45;;;18.40;99.90;;;;;;6299377;22;20039;-64
2021/08/03 11:57:55;;;;;;;9.60;6.68;;;18.50;99.90;;;;;;6299750;22;20070;-66
2021/08/03 12:00:23;;;;;;;7.70;6.03;;;18.70;99.90;;;;;;6299841;22;20285;-64
2021/08/03 12:02:54;;;;;;;12.13;7.13;;;19.00;99.90;;;;;;6300007;22;20003;-63
2021/08/03 12:05:34;;;;;;;10.65;6.97;;;19.30;99.90;;;;;;6298903;22;20000;-63
2021/08/03 12:08:07;;;;;;;9.48;6.10;;;19.50;99.90;;;;;;6300033;22;20030;-62
2021/08/03 12:10:41;;;;;;;12.48;5.68;;;19.80;99.90;;;;;;6299183;22;20419;-64
2021/08/03 12:13:11;;;;;;;7.55;6.25;;;20.00;99.90;;;;;;6299140;22;20007;-65
2021/08/03 12:15:51;;;;;;;8.85;5.20;;;19.90;99.90;;;;;;6298484;22;19999;-65
2021/08/03 12:18:17;;;;;;;7.25;5.07;;;20.00;99.90;;;;;;6298001;22;20006;-63
2021/08/03 12:20:49;;;;;;;5.53;4.07;;;19.90;99.90;;;;;;6299709;22;19999;-64
2021/08/03 12:23:21;;;;;;;5.55;4.47;;;19.80;99.90;;;;;;6298035;22;20026;-63
2021/08/03 12:25:48;;;;;;;6.00;4.47;;;20.00;99.90;;;;;;6299463;22;20034;-62
2021/08/03 12:28:27;;;;;;;5.70;4.60;;;20.00;99.90;;;;;;6299303;22;20011;-65
2021/08/03 12:30:53;;;;;;;5.97;4.90;;;19.80;99.90;;;;;;6295815;22;20006;-63
2021/08/03 12:33:32;;;;;;;6.18;4.68;;;19.60;99.90;;;;;;6297754;22;20338;-64
2021/08/03 12:36:07;;;;;;;6.35;4.90;;;19.60;99.90;;;;;;6298541;22;19999;-64
2021/08/03 12:38:34;;;;;;;4.65;3.55;;;19.50;99.90;;;;;;6299204;22;20049;-63